createdAt,value
2023-10-15T00:00:24.729Z,20.90
2023-10-15T00:03:27.600Z,20.89
2023-10-15T00:06:32.366Z,20.88
2023-10-15T00:09:35.297Z,20.91
2023-10-15T00:12:38.636Z,20.92
2023-10-15T00:15:41.574Z,20.91
2023-10-15T00:18:44.400Z,20.90
2023-10-15T00:21:49.011Z,20.90
2023-10-15T00:24:51.881Z,20.90
2023-10-15T00:27:56.010Z,20.90
2023-10-15T00:31:02.006Z,20.91
2023-10-15T00:34:13.422Z,20.92
2023-10-15T00:37:17.680Z,20.88
2023-10-15T00:40:21.403Z,20.90
2023-10-15T00:43:24.313Z,20.91
2023-10-15T00:46:29.087Z,20.91
2023-10-15T00:49:35.072Z,20.91
2023-10-15T00:52:43.607Z,20.89
2023-10-15T00:55:47.132Z,20.90
2023-10-15T00:59:09.439Z,20.92
2023-10-15T01:02:13.522Z,20.96
2023-10-15T01:05:17.912Z,20.92
2023-10-15T01:08:29.933Z,20.89
2023-10-15T01:11:32.787Z,20.88
2023-10-15T01:14:39.526Z,20.85
2023-10-15T01:17:42.981Z,20.85
2023-10-15T01:20:45.869Z,20.85
2023-10-15T01:24:02.204Z,20.83
2023-10-15T01:27:10.320Z,20.84
2023-10-15T01:30:18.619Z,20.86
2023-10-15T01:33:21.691Z,20.85
2023-10-15T01:36:28.746Z,20.85
2023-10-15T01:39:39.296Z,20.87
2023-10-15T01:42:44.367Z,20.85
2023-10-15T01:45:48.829Z,20.87
2023-10-15T01:48:51.860Z,20.85
2023-10-15T01:51:56.443Z,20.86
2023-10-15T01:55:05.228Z,20.86
2023-10-15T01:58:13.638Z,20.85
2023-10-15T02:01:21.959Z,20.83
2023-10-15T02:04:27.007Z,20.83
2023-10-15T02:07:32.346Z,20.92
2023-10-15T02:10:36.927Z,20.88
2023-10-15T02:13:42.100Z,20.84
2023-10-15T02:16:50.462Z,20.85
2023-10-15T02:19:56.520Z,20.84
2023-10-15T02:22:59.598Z,20.85
2023-10-15T02:26:02.746Z,20.83
2023-10-15T02:29:08.818Z,20.78
2023-10-15T02:32:22.503Z,20.78
2023-10-15T02:35:32.351Z,20.78
2023-10-15T02:38:38.116Z,20.77
2023-10-15T02:41:43.182Z,20.77
2023-10-15T02:44:52.131Z,20.77
2023-10-15T02:47:56.876Z,20.78
2023-10-15T02:51:08.378Z,20.76
2023-10-15T02:54:28.062Z,20.78
2023-10-15T02:57:31.649Z,20.79
2023-10-15T03:00:37.668Z,20.77
2023-10-15T03:03:49.561Z,20.79
2023-10-15T03:06:52.535Z,20.76
2023-10-15T03:09:58.429Z,20.77
2023-10-15T03:13:02.991Z,20.77
2023-10-15T03:16:08.636Z,20.76
2023-10-15T03:19:20.069Z,20.84
2023-10-15T03:22:25.220Z,20.91
2023-10-15T03:25:29.557Z,20.78
2023-10-15T03:28:36.100Z,20.72
2023-10-15T03:31:47.107Z,20.72
2023-10-15T03:35:01.295Z,20.74
2023-10-15T03:38:07.344Z,20.72
2023-10-15T03:41:22.753Z,20.72
2023-10-15T03:44:29.116Z,20.70
2023-10-15T03:47:33.381Z,20.73
2023-10-15T03:50:54.797Z,20.68
2023-10-15T03:54:07.924Z,20.69
2023-10-15T03:57:10.928Z,20.67
2023-10-15T04:00:18.270Z,20.66
2023-10-15T04:03:24.499Z,20.66
2023-10-15T04:06:27.420Z,20.65
2023-10-15T04:09:35.008Z,20.61
2023-10-15T04:12:42.036Z,20.60
2023-10-15T04:15:44.881Z,20.56
2023-10-15T04:18:49.185Z,20.56
2023-10-15T04:22:00.574Z,20.55
2023-10-15T04:25:07.582Z,20.53
2023-10-15T04:28:12.902Z,20.48
2023-10-15T04:31:22.987Z,20.47
2023-10-15T04:34:27.884Z,20.40
2023-10-15T04:37:35.888Z,20.40
2023-10-15T04:40:51.484Z,20.38
2023-10-15T04:43:56.042Z,20.32
2023-10-15T04:47:06.338Z,20.33
2023-10-15T04:50:16.294Z,20.35
2023-10-15T04:53:25.492Z,20.31
2023-10-15T04:56:28.617Z,20.32
2023-10-15T04:59:31.480Z,20.38
2023-10-15T05:02:35.297Z,20.33
2023-10-15T05:05:39.707Z,20.36
2023-10-15T05:08:43.439Z,20.36
2023-10-15T05:11:46.326Z,20.37
2023-10-15T05:14:50.361Z,20.32
2023-10-15T05:17:53.247Z,20.34
2023-10-15T05:20:57.852Z,20.30
2023-10-15T05:24:03.842Z,20.27
2023-10-15T05:27:06.707Z,20.28
2023-10-15T05:30:11.282Z,20.27
2023-10-15T05:33:14.344Z,20.28
2023-10-15T05:36:18.583Z,20.25
2023-10-15T05:39:21.387Z,20.24
2023-10-15T05:42:24.186Z,20.23
2023-10-15T05:45:26.983Z,20.24
2023-10-15T05:48:29.777Z,20.19
2023-10-15T05:51:34.925Z,20.17
2023-10-15T05:54:37.711Z,20.18
2023-10-15T05:57:40.679Z,20.20
2023-10-15T06:00:43.559Z,20.17
2023-10-15T06:03:48.263Z,20.17
2023-10-15T06:06:53.528Z,20.16
2023-10-15T06:09:56.461Z,20.12
2023-10-15T06:12:59.251Z,20.14
2023-10-15T06:16:03.039Z,20.17
2023-10-15T06:19:06.408Z,20.13
2023-10-15T06:22:10.655Z,20.16
2023-10-15T06:25:14.393Z,20.13
2023-10-15T06:28:17.382Z,20.14
2023-10-15T06:31:20.196Z,20.17
2023-10-15T06:34:23.100Z,20.13
2023-10-15T06:37:28.472Z,20.18
2023-10-15T06:40:33.106Z,20.14
2023-10-15T06:43:38.037Z,20.17
2023-10-15T06:46:41.167Z,20.15
2023-10-15T06:49:44.112Z,20.14
2023-10-15T06:52:48.643Z,20.16
2023-10-15T06:55:52.538Z,20.11
2023-10-15T06:58:56.043Z,20.13
2023-10-15T07:01:59.026Z,20.13
2023-10-15T07:05:02.964Z,20.14
2023-10-15T07:08:07.688Z,20.13
2023-10-15T07:11:10.682Z,20.13
2023-10-15T07:14:13.696Z,20.12
2023-10-15T07:17:18.046Z,20.13
2023-10-15T07:20:22.958Z,20.12
2023-10-15T07:23:27.819Z,20.12
2023-10-15T07:26:31.621Z,20.12
2023-10-15T07:29:34.901Z,20.12
2023-10-15T07:32:37.760Z,20.12
2023-10-15T07:35:41.617Z,20.11
2023-10-15T07:38:46.446Z,20.11
2023-10-15T07:41:49.392Z,20.11
2023-10-15T07:44:52.411Z,20.10
2023-10-15T07:47:55.393Z,20.10
2023-10-15T07:50:58.225Z,20.12
2023-10-15T07:54:04.665Z,20.12
2023-10-15T07:57:08.700Z,20.12
2023-10-15T08:00:16.445Z,20.12
2023-10-15T08:03:19.650Z,20.11
2023-10-15T08:06:25.296Z,20.15
2023-10-15T08:09:31.154Z,20.15
2023-10-15T08:12:34.016Z,20.16
2023-10-15T08:15:37.686Z,20.19
2023-10-15T08:18:40.737Z,20.20
2023-10-15T08:21:44.831Z,20.23
2023-10-15T08:24:49.000Z,20.22
2023-10-15T08:27:51.934Z,20.23
2023-10-15T08:30:55.851Z,20.24
2023-10-15T08:33:58.748Z,20.26
2023-10-15T08:37:01.544Z,20.27
2023-10-15T08:40:06.548Z,20.29
2023-10-15T08:43:13.270Z,20.30
2023-10-15T08:46:16.545Z,20.34
2023-10-15T08:49:20.770Z,20.33
2023-10-15T08:52:24.315Z,20.36
2023-10-15T08:55:28.688Z,20.36
2023-10-15T08:58:32.041Z,20.38
2023-10-15T09:01:35.640Z,20.36
2023-10-15T09:04:38.784Z,20.36
2023-10-15T09:07:41.760Z,20.38
2023-10-15T09:10:46.144Z,20.40
2023-10-15T09:13:51.901Z,20.40
2023-10-15T09:16:57.855Z,20.42
2023-10-15T09:20:02.026Z,20.41
2023-10-15T09:23:05.191Z,20.43
2023-10-15T09:26:09.849Z,20.44
2023-10-15T09:29:22.071Z,20.44
2023-10-15T09:32:26.302Z,20.44
2023-10-15T09:35:30.797Z,20.44
2023-10-15T09:38:34.124Z,20.46
2023-10-15T09:41:38.507Z,20.47
2023-10-15T09:44:41.405Z,20.48
2023-10-15T09:47:49.630Z,20.49
2023-10-15T09:50:55.045Z,20.52
2023-10-15T09:54:01.001Z,20.53
2023-10-15T09:57:07.077Z,20.53
2023-10-15T10:00:20.398Z,20.53
2023-10-15T10:03:53.829Z,20.58
2023-10-15T10:07:11.587Z,20.57
2023-10-15T10:10:27.684Z,20.60
2023-10-15T10:13:51.576Z,20.59
2023-10-15T10:16:57.058Z,20.63
2023-10-15T10:20:12.130Z,20.63
2023-10-15T10:23:15.750Z,20.64
2023-10-15T10:26:20.882Z,20.66
2023-10-15T10:29:27.067Z,20.68
2023-10-15T10:32:31.421Z,20.71
2023-10-15T10:35:44.309Z,20.70
2023-10-15T10:38:55.165Z,20.72
2023-10-15T10:42:00.346Z,20.73
2023-10-15T10:45:03.224Z,20.74
2023-10-15T10:48:07.689Z,20.77
2023-10-15T10:51:14.179Z,20.76
2023-10-15T10:54:26.710Z,20.79
2023-10-15T10:57:32.845Z,20.78
2023-10-15T11:00:35.673Z,20.79
2023-10-15T11:03:41.553Z,20.83
2023-10-15T11:06:46.823Z,20.92
2023-10-15T11:09:51.233Z,20.96
2023-10-15T11:12:54.099Z,20.98
2023-10-15T11:15:56.946Z,21.01
2023-10-15T11:19:01.133Z,20.95
2023-10-15T11:22:05.206Z,20.95
2023-10-15T11:25:15.627Z,20.92
2023-10-15T11:28:20.114Z,20.82
2023-10-15T11:31:23.100Z,20.87
2023-10-15T11:34:29.582Z,20.87
2023-10-15T11:37:36.332Z,20.79
2023-10-15T11:40:39.883Z,20.86
2023-10-15T11:43:44.817Z,20.88
2023-10-15T11:46:48.810Z,20.84
2023-10-15T11:49:53.165Z,20.80
2023-10-15T11:52:56.793Z,20.79
2023-10-15T11:55:59.799Z,20.80
2023-10-15T11:59:02.841Z,20.82
2023-10-15T12:02:05.743Z,20.88
2023-10-15T12:05:10.837Z,20.88
2023-10-15T12:08:14.648Z,20.86
2023-10-15T12:11:19.681Z,20.82
2023-10-15T12:14:22.615Z,20.79
2023-10-15T12:17:25.598Z,20.75
2023-10-15T12:20:30.085Z,20.75
2023-10-15T12:23:33.005Z,20.75
2023-10-15T12:26:35.796Z,20.75
2023-10-15T12:29:40.311Z,20.78
2023-10-15T12:32:47.337Z,20.79
2023-10-15T12:35:52.619Z,20.75
2023-10-15T12:38:55.737Z,20.75
2023-10-15T12:41:59.962Z,20.75
2023-10-15T12:45:02.774Z,20.78
2023-10-15T12:48:06.605Z,20.77
2023-10-15T12:51:11.657Z,20.76
2023-10-15T12:54:14.909Z,20.82
2023-10-15T12:57:17.825Z,20.89
2023-10-15T13:00:22.635Z,20.91
2023-10-15T13:03:26.643Z,20.98
2023-10-15T13:06:30.826Z,20.85
2023-10-15T13:09:34.883Z,20.80
2023-10-15T13:12:37.757Z,20.78
2023-10-15T13:15:40.578Z,20.77
2023-10-15T13:18:43.463Z,20.79
2023-10-15T13:21:47.751Z,20.78
2023-10-15T13:24:50.571Z,20.75
2023-10-15T13:27:53.476Z,20.74
2023-10-15T13:30:56.533Z,20.72
2023-10-15T13:33:59.437Z,20.74
2023-10-15T13:37:05.341Z,20.68
2023-10-15T13:40:11.080Z,20.68
2023-10-15T13:43:13.888Z,20.66
2023-10-15T13:46:16.717Z,20.67
2023-10-15T13:49:19.990Z,20.66
2023-10-15T13:52:24.268Z,20.55
2023-10-15T13:55:27.162Z,20.60
2023-10-15T13:58:30.545Z,20.62
2023-10-15T14:01:34.225Z,20.63
2023-10-15T14:04:37.171Z,20.61
2023-10-15T14:07:41.789Z,20.62
2023-10-15T14:10:44.678Z,20.61
2023-10-15T14:13:47.862Z,20.59
2023-10-15T14:16:50.905Z,20.51
2023-10-15T14:19:56.017Z,20.61
2023-10-15T14:23:00.319Z,20.62
2023-10-15T14:26:03.449Z,20.59
2023-10-15T14:29:06.759Z,20.55
2023-10-15T14:32:09.774Z,20.55
2023-10-15T14:35:13.023Z,20.56
2023-10-15T14:38:17.249Z,20.58
2023-10-15T14:41:20.335Z,20.51
2023-10-15T14:44:24.259Z,20.51
2023-10-15T14:47:28.214Z,20.50
2023-10-15T14:50:31.451Z,20.49
2023-10-15T14:53:35.746Z,20.50
2023-10-15T14:56:38.604Z,20.50
2023-10-15T15:02:51.997Z,20.47
2023-10-15T15:05:54.855Z,20.46
2023-10-15T15:08:57.681Z,20.43
2023-10-15T15:12:00.484Z,20.40
2023-10-15T15:15:03.664Z,20.38
2023-10-15T15:18:07.995Z,20.31
2023-10-15T15:21:10.866Z,20.27
2023-10-15T15:24:17.065Z,20.30
2023-10-15T15:27:19.954Z,20.28
2023-10-15T15:30:23.135Z,20.21
2023-10-15T15:33:28.507Z,20.24
2023-10-15T15:36:31.366Z,20.22
2023-10-15T15:39:34.184Z,20.19
2023-10-15T15:42:38.696Z,20.20
2023-10-15T15:45:41.735Z,20.28
2023-10-15T15:48:46.679Z,20.22
2023-10-15T15:51:51.565Z,20.12
2023-10-15T15:54:57.272Z,20.17
2023-10-15T15:58:00.090Z,20.19
2023-10-15T16:01:03.718Z,20.18
2023-10-15T16:04:08.827Z,20.13
2023-10-15T16:07:11.979Z,20.19
2023-10-15T16:10:15.884Z,20.18
2023-10-15T16:13:18.947Z,20.18
2023-10-15T16:16:23.113Z,20.16
2023-10-15T16:19:27.332Z,20.16
2023-10-15T16:22:30.276Z,20.17
2023-10-15T16:25:33.480Z,20.18
2023-10-15T16:28:36.363Z,20.18
2023-10-15T16:31:39.223Z,20.16
2023-10-15T16:34:43.573Z,20.17
2023-10-15T16:37:46.457Z,20.15
2023-10-15T16:40:49.366Z,20.16
2023-10-15T16:43:52.236Z,20.26
2023-10-15T16:46:57.704Z,20.25
2023-10-15T16:50:02.272Z,20.31
2023-10-15T16:53:09.799Z,20.21
2023-10-15T16:56:14.988Z,20.22
2023-10-15T16:59:18.036Z,20.20
2023-10-15T17:02:21.006Z,20.20
2023-10-15T17:05:25.598Z,20.21
2023-10-15T17:08:30.577Z,20.23
2023-10-15T17:11:33.409Z,20.30
2023-10-15T17:14:36.277Z,20.20
2023-10-15T17:17:39.206Z,20.16
2023-10-15T17:20:43.471Z,20.20
2023-10-15T17:23:47.329Z,20.23
2023-10-15T17:26:50.179Z,20.26
2023-10-15T17:30:13.635Z,20.24
2023-10-15T17:33:16.824Z,20.26
2023-10-15T17:36:23.381Z,20.25
2023-10-15T17:39:28.129Z,20.20
2023-10-15T17:42:31.041Z,20.16
2023-10-15T17:45:34.097Z,20.17
2023-10-15T17:48:36.973Z,20.18
2023-10-15T17:51:42.039Z,20.18
2023-10-15T17:54:45.745Z,20.19
2023-10-15T17:57:48.617Z,20.15
2023-10-15T18:00:51.589Z,20.18
2023-10-15T18:03:54.932Z,20.18
2023-10-15T18:07:00.132Z,20.20
2023-10-15T18:10:02.983Z,20.16
2023-10-15T18:13:05.898Z,20.19
2023-10-15T18:16:08.867Z,20.17
2023-10-15T18:19:11.704Z,20.15
2023-10-15T18:22:15.903Z,20.17
2023-10-15T18:25:18.679Z,20.12
2023-10-15T18:28:21.934Z,20.14
2023-10-15T18:31:25.093Z,20.11
2023-10-15T18:34:29.610Z,20.09
2023-10-15T18:37:34.048Z,20.06
2023-10-15T18:40:36.969Z,20.08
2023-10-15T18:43:40.045Z,20.07
2023-10-15T18:46:42.945Z,20.11
2023-10-15T18:49:45.808Z,20.09
2023-10-15T18:52:49.984Z,20.10
2023-10-15T18:55:52.841Z,20.16
2023-10-15T18:58:57.496Z,20.14
2023-10-15T19:02:00.489Z,20.10
2023-10-15T19:05:03.459Z,20.12
2023-10-15T19:08:08.533Z,20.08
2023-10-15T19:11:14.754Z,20.09
2023-10-15T19:14:17.809Z,20.08
2023-10-15T19:17:20.581Z,20.10
2023-10-15T19:20:24.175Z,20.07
2023-10-15T19:23:28.378Z,20.08
2023-10-15T19:26:31.486Z,20.05
2023-10-15T19:29:34.353Z,20.06
2023-10-15T19:32:37.193Z,20.10
2023-10-15T19:35:39.987Z,20.10
2023-10-15T19:38:44.155Z,20.08
2023-10-15T19:41:46.973Z,20.07
2023-10-15T19:44:49.801Z,20.07
2023-10-15T19:47:53.978Z,20.08
2023-10-15T19:50:56.912Z,20.08
2023-10-15T19:54:01.203Z,20.08
2023-10-15T19:57:04.251Z,20.05
2023-10-15T20:00:19.557Z,20.03
2023-10-15T20:03:22.897Z,20.09
2023-10-15T20:06:26.202Z,20.12
2023-10-15T20:09:30.581Z,20.17
2023-10-15T20:12:33.872Z,20.20
2023-10-15T20:15:36.754Z,20.26
2023-10-15T20:18:39.558Z,20.33
2023-10-15T20:21:42.536Z,20.56
2023-10-15T20:24:47.421Z,20.41
2023-10-15T20:27:50.509Z,20.43
2023-10-15T20:30:53.642Z,20.42
2023-10-15T20:33:56.755Z,20.42
2023-10-15T20:36:59.711Z,20.45
2023-10-15T20:40:12.365Z,20.45
2023-10-15T20:43:15.218Z,20.46
2023-10-15T20:46:18.085Z,20.49
2023-10-15T20:49:20.990Z,20.51
2023-10-15T20:52:23.822Z,20.52
2023-10-15T20:55:28.091Z,20.52
2023-10-15T20:58:30.975Z,20.51
2023-10-15T21:01:33.927Z,20.53
2023-10-15T21:04:36.869Z,20.54
2023-10-15T21:07:40.433Z,20.56
2023-10-15T21:10:44.738Z,20.55
2023-10-15T21:13:47.555Z,20.57
2023-10-15T21:16:50.382Z,20.57
2023-10-15T21:19:55.987Z,20.58
2023-10-15T21:22:59.922Z,20.65
2023-10-15T21:26:04.092Z,20.53
2023-10-15T21:29:07.011Z,20.70
2023-10-15T21:32:09.853Z,20.64
2023-10-15T21:35:12.736Z,20.64
2023-10-15T21:38:15.588Z,20.65
2023-10-15T21:41:19.829Z,20.65
2023-10-15T21:44:22.650Z,20.68
2023-10-15T21:47:25.525Z,20.66
2023-10-15T21:50:28.482Z,20.62
2023-10-15T21:53:31.299Z,20.67
2023-10-15T21:56:35.943Z,20.63
2023-10-15T21:59:38.798Z,20.65
2023-10-15T22:02:41.715Z,20.76
2023-10-15T22:05:45.002Z,20.83
2023-10-15T22:08:47.838Z,20.84
2023-10-15T22:11:53.465Z,20.86
2023-10-15T22:14:58.518Z,20.88
2023-10-15T22:18:04.330Z,20.86
2023-10-15T22:21:07.935Z,20.85
2023-10-15T22:24:23.288Z,20.84
2023-10-15T22:27:27.529Z,20.83
2023-10-15T22:30:39.080Z,20.82
2023-10-15T22:33:42.413Z,20.82
2023-10-15T22:36:45.247Z,20.82
2023-10-15T22:39:48.259Z,20.83
2023-10-15T22:42:52.487Z,20.82
2023-10-15T22:45:55.305Z,20.84
2023-10-15T22:48:58.165Z,20.86
2023-10-15T22:52:01.177Z,21.05
2023-10-15T22:55:04.623Z,20.95
2023-10-15T22:58:08.899Z,20.93
2023-10-15T23:01:20.179Z,20.85
2023-10-15T23:04:23.231Z,20.84
2023-10-15T23:07:26.197Z,20.83
2023-10-15T23:10:29.430Z,20.83
2023-10-15T23:13:34.678Z,20.82
2023-10-15T23:16:40.776Z,20.84
2023-10-15T23:19:43.854Z,20.83
2023-10-15T23:22:47.064Z,20.80
2023-10-15T23:25:53.323Z,20.84
2023-10-15T23:28:57.952Z,20.82
2023-10-15T23:32:00.897Z,20.82
2023-10-15T23:35:03.812Z,20.79
2023-10-15T23:38:08.653Z,20.87
2023-10-15T23:41:12.287Z,20.90
2023-10-15T23:44:20.890Z,20.91
2023-10-15T23:47:23.805Z,20.84
2023-10-15T23:50:32.421Z,20.80
2023-10-15T23:53:36.579Z,20.82
2023-10-15T23:56:43.149Z,20.84
2023-10-15T23:59:47.782Z,20.82
